sensor_id;sensor_type;location;lat;lon;timestamp;P1;durP1;ratioP1;P2;durP2;ratioP2
27209;SDS011;14721;42.668;23.386;2023-07-31T00:01:36;4.53;;;2.40;;
27209;SDS011;14721;42.668;23.386;2023-07-31T00:04:02;3.42;;;2.50;;
27209;SDS011;14721;42.668;23.386;2023-07-31T00:06:27;4.93;;;2.85;;
27209;SDS011;14721;42.668;23.386;2023-07-31T00:08:53;4.13;;;2.22;;
27209;SDS011;14721;42.668;23.386;2023-07-31T00:11:20;3.58;;;2.45;;
27209;SDS011;14721;42.668;23.386;2023-07-31T00:13:45;5.72;;;2.88;;
27209;SDS011;14721;42.668;23.386;2023-07-31T00:16:10;4.10;;;2.65;;
27209;SDS011;14721;42.668;23.386;2023-07-31T00:18:36;3.13;;;2.40;;
27209;SDS011;14721;42.668;23.386;2023-07-31T00:21:01;4.28;;;2.67;;
27209;SDS011;14721;42.668;23.386;2023-07-31T00:23:27;5.60;;;2.90;;
27209;SDS011;14721;42.668;23.386;2023-07-31T00:25:52;4.10;;;2.60;;
27209;SDS011;14721;42.668;23.386;2023-07-31T00:28:18;3.90;;;2.40;;
27209;SDS011;14721;42.668;23.386;2023-07-31T00:30:43;3.60;;;2.47;;
27209;SDS011;14721;42.668;23.386;2023-07-31T00:33:10;4.25;;;2.70;;
27209;SDS011;14721;42.668;23.386;2023-07-31T00:35:35;4.05;;;2.88;;
27209;SDS011;14721;42.668;23.386;2023-07-31T00:38:01;4.05;;;2.65;;
27209;SDS011;14721;42.668;23.386;2023-07-31T00:40:26;4.60;;;2.70;;
27209;SDS011;14721;42.668;23.386;2023-07-31T00:42:52;5.60;;;3.53;;
27209;SDS011;14721;42.668;23.386;2023-07-31T00:45:17;15.30;;;11.10;;
27209;SDS011;14721;42.668;23.386;2023-07-31T00:47:43;3.85;;;2.72;;
27209;SDS011;14721;42.668;23.386;2023-07-31T00:50:09;5.20;;;3.60;;
27209;SDS011;14721;42.668;23.386;2023-07-31T00:52:35;4.95;;;2.92;;
27209;SDS011;14721;42.668;23.386;2023-07-31T00:55:02;4.32;;;2.83;;
27209;SDS011;14721;42.668;23.386;2023-07-31T00:57:28;4.85;;;3.42;;
27209;SDS011;14721;42.668;23.386;2023-07-31T00:59:54;5.03;;;3.67;;
27209;SDS011;14721;42.668;23.386;2023-07-31T01:02:19;6.28;;;3.45;;
27209;SDS011;14721;42.668;23.386;2023-07-31T01:04:46;6.63;;;3.95;;
27209;SDS011;14721;42.668;23.386;2023-07-31T01:10:04;6.88;;;4.38;;
27209;SDS011;14721;42.668;23.386;2023-07-31T01:12:32;12.10;;;5.97;;
27209;SDS011;14721;42.668;23.386;2023-07-31T01:15:03;9.52;;;5.85;;
27209;SDS011;14721;42.668;23.386;2023-07-31T01:17:30;9.52;;;6.25;;
27209;SDS011;14721;42.668;23.386;2023-07-31T01:19:55;9.02;;;6.45;;
27209;SDS011;14721;42.668;23.386;2023-07-31T01:28:33;11.15;;;6.95;;
27209;SDS011;14721;42.668;23.386;2023-07-31T01:31:10;10.43;;;7.75;;
27209;SDS011;14721;42.668;23.386;2023-07-31T01:33:39;11.02;;;7.60;;
27209;SDS011;14721;42.668;23.386;2023-07-31T01:36:06;13.02;;;8.65;;
27209;SDS011;14721;42.668;23.386;2023-07-31T01:38:37;12.25;;;8.85;;
27209;SDS011;14721;42.668;23.386;2023-07-31T01:41:04;14.20;;;9.02;;
27209;SDS011;14721;42.668;23.386;2023-07-31T01:43:29;11.77;;;9.15;;
27209;SDS011;14721;42.668;23.386;2023-07-31T01:45:57;14.32;;;9.55;;
27209;SDS011;14721;42.668;23.386;2023-07-31T01:48:25;13.63;;;9.25;;
27209;SDS011;14721;42.668;23.386;2023-07-31T01:50:50;14.68;;;10.18;;
27209;SDS011;14721;42.668;23.386;2023-07-31T01:53:18;16.10;;;10.90;;
27209;SDS011;14721;42.668;23.386;2023-07-31T01:55:43;16.52;;;12.18;;
27209;SDS011;14721;42.668;23.386;2023-07-31T01:58:09;15.38;;;11.18;;
27209;SDS011;14721;42.668;23.386;2023-07-31T02:00:34;18.08;;;11.45;;
27209;SDS011;14721;42.668;23.386;2023-07-31T02:03:02;17.35;;;12.10;;
27209;SDS011;14721;42.668;23.386;2023-07-31T02:05:28;17.63;;;12.07;;
27209;SDS011;14721;42.668;23.386;2023-07-31T02:07:53;18.63;;;12.73;;
27209;SDS011;14721;42.668;23.386;2023-07-31T02:10:19;18.10;;;13.25;;
27209;SDS011;14721;42.668;23.386;2023-07-31T02:12:44;19.20;;;13.27;;
27209;SDS011;14721;42.668;23.386;2023-07-31T02:15:10;19.58;;;12.88;;
27209;SDS011;14721;42.668;23.386;2023-07-31T02:17:35;20.33;;;13.45;;
27209;SDS011;14721;42.668;23.386;2023-07-31T02:20:02;19.48;;;13.25;;
27209;SDS011;14721;42.668;23.386;2023-07-31T02:22:27;20.05;;;13.80;;
27209;SDS011;14721;42.668;23.386;2023-07-31T02:24:53;22.70;;;14.18;;
27209;SDS011;14721;42.668;23.386;2023-07-31T02:27:18;21.02;;;14.40;;
27209;SDS011;14721;42.668;23.386;2023-07-31T02:29:46;21.23;;;13.80;;
27209;SDS011;14721;42.668;23.386;2023-07-31T02:32:12;20.92;;;14.13;;
27209;SDS011;14721;42.668;23.386;2023-07-31T02:34:37;21.63;;;14.52;;
27209;SDS011;14721;42.668;23.386;2023-07-31T02:37:05;21.58;;;14.80;;
27209;SDS011;14721;42.668;23.386;2023-07-31T02:39:53;21.10;;;14.13;;
27209;SDS011;14721;42.668;23.386;2023-07-31T02:42:19;19.88;;;14.00;;
27209;SDS011;14721;42.668;23.386;2023-07-31T02:44:47;19.50;;;13.38;;
27209;SDS011;14721;42.668;23.386;2023-07-31T02:47:12;19.95;;;14.25;;
27209;SDS011;14721;42.668;23.386;2023-07-31T02:49:38;19.92;;;14.02;;
27209;SDS011;14721;42.668;23.386;2023-07-31T02:52:03;22.02;;;14.57;;
27209;SDS011;14721;42.668;23.386;2023-07-31T02:54:29;21.58;;;14.98;;
27209;SDS011;14721;42.668;23.386;2023-07-31T02:56:54;23.42;;;14.88;;
27209;SDS011;14721;42.668;23.386;2023-07-31T02:59:20;21.25;;;14.50;;
27209;SDS011;14721;42.668;23.386;2023-07-31T03:01:47;21.77;;;14.52;;
27209;SDS011;14721;42.668;23.386;2023-07-31T03:04:12;22.30;;;15.27;;
27209;SDS011;14721;42.668;23.386;2023-07-31T03:06:38;21.13;;;14.18;;
27209;SDS011;14721;42.668;23.386;2023-07-31T03:09:03;22.75;;;14.93;;
27209;SDS011;14721;42.668;23.386;2023-07-31T03:11:29;21.85;;;14.05;;
27209;SDS011;14721;42.668;23.386;2023-07-31T03:13:54;20.30;;;14.63;;
27209;SDS011;14721;42.668;23.386;2023-07-31T03:16:19;22.08;;;14.68;;
27209;SDS011;14721;42.668;23.386;2023-07-31T03:18:45;28.60;;;18.23;;
27209;SDS011;14721;42.668;23.386;2023-07-31T03:21:10;19.63;;;13.75;;
27209;SDS011;14721;42.668;23.386;2023-07-31T03:23:36;27.58;;;17.98;;
27209;SDS011;14721;42.668;23.386;2023-07-31T03:26:02;20.90;;;15.38;;
27209;SDS011;14721;42.668;23.386;2023-07-31T03:28:32;29.00;;;18.17;;
27209;SDS011;14721;42.668;23.386;2023-07-31T03:30:58;32.53;;;22.33;;
27209;SDS011;14721;42.668;23.386;2023-07-31T03:33:24;25.58;;;16.50;;
27209;SDS011;14721;42.668;23.386;2023-07-31T03:35:50;25.45;;;17.58;;
27209;SDS011;14721;42.668;23.386;2023-07-31T03:38:16;21.45;;;15.32;;
27209;SDS011;14721;42.668;23.386;2023-07-31T03:40:41;21.40;;;14.57;;
27209;SDS011;14721;42.668;23.386;2023-07-31T03:43:07;28.17;;;17.40;;
27209;SDS011;14721;42.668;23.386;2023-07-31T03:45:32;21.55;;;15.43;;
27209;SDS011;14721;42.668;23.386;2023-07-31T03:47:58;23.58;;;15.38;;
27209;SDS011;14721;42.668;23.386;2023-07-31T03:50:25;21.98;;;15.80;;
27209;SDS011;14721;42.668;23.386;2023-07-31T03:52:50;22.85;;;15.82;;
27209;SDS011;14721;42.668;23.386;2023-07-31T03:55:16;23.15;;;14.52;;
27209;SDS011;14721;42.668;23.386;2023-07-31T03:57:41;38.90;;;21.92;;
27209;SDS011;14721;42.668;23.386;2023-07-31T04:00:07;25.30;;;15.63;;
27209;SDS011;14721;42.668;23.386;2023-07-31T04:02:35;24.55;;;15.98;;
27209;SDS011;14721;42.668;23.386;2023-07-31T04:05:01;24.27;;;16.35;;
27209;SDS011;14721;42.668;23.386;2023-07-31T04:07:26;31.38;;;19.52;;
27209;SDS011;14721;42.668;23.386;2023-07-31T04:09:52;18.25;;;14.38;;
27209;SDS011;14721;42.668;23.386;2023-07-31T04:12:17;23.25;;;15.40;;
27209;SDS011;14721;42.668;23.386;2023-07-31T04:14:43;26.45;;;16.63;;
27209;SDS011;14721;42.668;23.386;2023-07-31T04:17:08;26.95;;;17.17;;
27209;SDS011;14721;42.668;23.386;2023-07-31T04:19:33;24.40;;;16.88;;
27209;SDS011;14721;42.668;23.386;2023-07-31T04:21:59;31.77;;;19.08;;
27209;SDS011;14721;42.668;23.386;2023-07-31T04:24:24;25.58;;;15.60;;
27209;SDS011;14721;42.668;23.386;2023-07-31T04:26:50;25.15;;;16.95;;
27209;SDS011;14721;42.668;23.386;2023-07-31T04:29:16;31.58;;;18.67;;
27209;SDS011;14721;42.668;23.386;2023-07-31T04:31:42;24.85;;;15.65;;
27209;SDS011;14721;42.668;23.386;2023-07-31T04:34:07;24.98;;;15.07;;
27209;SDS011;14721;42.668;23.386;2023-07-31T04:36:33;26.10;;;15.55;;
27209;SDS011;14721;42.668;23.386;2023-07-31T04:38:59;29.77;;;18.10;;
27209;SDS011;14721;42.668;23.386;2023-07-31T04:41:26;25.15;;;15.55;;
27209;SDS011;14721;42.668;23.386;2023-07-31T04:43:53;27.90;;;17.15;;
27209;SDS011;14721;42.668;23.386;2023-07-31T04:46:18;23.85;;;15.48;;
27209;SDS011;14721;42.668;23.386;2023-07-31T04:48:44;26.55;;;15.52;;
27209;SDS011;14721;42.668;23.386;2023-07-31T04:51:09;25.23;;;14.27;;
27209;SDS011;14721;42.668;23.386;2023-07-31T04:53:35;22.73;;;15.60;;
27209;SDS011;14721;42.668;23.386;2023-07-31T04:56:00;26.30;;;15.88;;
27209;SDS011;14721;42.668;23.386;2023-07-31T04:58:26;22.95;;;15.18;;
27209;SDS011;14721;42.668;23.386;2023-07-31T05:00:52;23.02;;;15.18;;
27209;SDS011;14721;42.668;23.386;2023-07-31T05:03:17;21.88;;;14.27;;
27209;SDS011;14721;42.668;23.386;2023-07-31T05:05:43;21.48;;;13.85;;
27209;SDS011;14721;42.668;23.386;2023-07-31T05:08:09;20.95;;;13.48;;
27209;SDS011;14721;42.668;23.386;2023-07-31T05:10:37;23.52;;;15.95;;
27209;SDS011;14721;42.668;23.386;2023-07-31T05:13:02;22.80;;;14.98;;
27209;SDS011;14721;42.668;23.386;2023-07-31T05:15:28;21.35;;;14.15;;
27209;SDS011;14721;42.668;23.386;2023-07-31T05:17:54;19.58;;;13.70;;
27209;SDS011;14721;42.668;23.386;2023-07-31T05:20:20;24.02;;;14.88;;
27209;SDS011;14721;42.668;23.386;2023-07-31T05:22:48;20.67;;;13.13;;
27209;SDS011;14721;42.668;23.386;2023-07-31T05:25:13;20.70;;;13.20;;
27209;SDS011;14721;42.668;23.386;2023-07-31T05:27:39;20.80;;;10.85;;
27209;SDS011;14721;42.668;23.386;2023-07-31T05:30:05;18.20;;;12.23;;
27209;SDS011;14721;42.668;23.386;2023-07-31T05:32:33;17.02;;;11.35;;
27209;SDS011;14721;42.668;23.386;2023-07-31T05:34:58;15.60;;;11.23;;
27209;SDS011;14721;42.668;23.386;2023-07-31T05:37:24;13.57;;;9.88;;
27209;SDS011;14721;42.668;23.386;2023-07-31T05:39:49;12.85;;;9.98;;
27209;SDS011;14721;42.668;23.386;2023-07-31T05:42:17;13.82;;;9.60;;
27209;SDS011;14721;42.668;23.386;2023-07-31T05:44:42;11.68;;;8.82;;
27209;SDS011;14721;42.668;23.386;2023-07-31T05:47:08;12.07;;;9.40;;
27209;SDS011;14721;42.668;23.386;2023-07-31T05:49:34;11.88;;;8.65;;
27209;SDS011;14721;42.668;23.386;2023-07-31T05:51:59;12.68;;;8.95;;
27209;SDS011;14721;42.668;23.386;2023-07-31T05:54:24;11.27;;;8.70;;
27209;SDS011;14721;42.668;23.386;2023-07-31T05:56:50;12.38;;;8.40;;
27209;SDS011;14721;42.668;23.386;2023-07-31T05:59:16;9.23;;;7.22;;
27209;SDS011;14721;42.668;23.386;2023-07-31T06:01:41;10.23;;;6.43;;
27209;SDS011;14721;42.668;23.386;2023-07-31T06:04:07;8.48;;;6.60;;
27209;SDS011;14721;42.668;23.386;2023-07-31T06:06:34;8.95;;;7.25;;
27209;SDS011;14721;42.668;23.386;2023-07-31T06:09:02;8.35;;;6.93;;
27209;SDS011;14721;42.668;23.386;2023-07-31T06:11:28;8.60;;;6.35;;
27209;SDS011;14721;42.668;23.386;2023-07-31T06:13:55;9.30;;;6.35;;
27209;SDS011;14721;42.668;23.386;2023-07-31T06:16:21;8.07;;;6.20;;
27209;SDS011;14721;42.668;23.386;2023-07-31T06:18:46;7.63;;;6.13;;
27209;SDS011;14721;42.668;23.386;2023-07-31T06:21:14;9.30;;;6.30;;
27209;SDS011;14721;42.668;23.386;2023-07-31T06:23:39;10.40;;;6.05;;
27209;SDS011;14721;42.668;23.386;2023-07-31T06:26:05;6.63;;;5.47;;
27209;SDS011;14721;42.668;23.386;2023-07-31T06:28:31;6.38;;;4.47;;
27209;SDS011;14721;42.668;23.386;2023-07-31T06:30:57;6.78;;;4.38;;
27209;SDS011;14721;42.668;23.386;2023-07-31T06:33:23;7.38;;;4.53;;
27209;SDS011;14721;42.668;23.386;2023-07-31T06:35:49;6.47;;;4.40;;
27209;SDS011;14721;42.668;23.386;2023-07-31T06:38:24;5.05;;;3.90;;
27209;SDS011;14721;42.668;23.386;2023-07-31T06:40:51;6.15;;;4.22;;
27209;SDS011;14721;42.668;23.386;2023-07-31T06:43:16;5.72;;;4.57;;
27209;SDS011;14721;42.668;23.386;2023-07-31T06:45:45;5.55;;;3.80;;
27209;SDS011;14721;42.668;23.386;2023-07-31T06:48:16;5.88;;;3.85;;
27209;SDS011;14721;42.668;23.386;2023-07-31T06:50:44;5.85;;;3.92;;
27209;SDS011;14721;42.668;23.386;2023-07-31T06:53:09;5.03;;;3.42;;
27209;SDS011;14721;42.668;23.386;2023-07-31T06:55:36;12.68;;;4.35;;
27209;SDS011;14721;42.668;23.386;2023-07-31T06:58:04;6.43;;;3.78;;
27209;SDS011;14721;42.668;23.386;2023-07-31T07:00:38;5.57;;;3.78;;
27209;SDS011;14721;42.668;23.386;2023-07-31T07:03:03;4.88;;;3.22;;
27209;SDS011;14721;42.668;23.386;2023-07-31T07:05:28;5.57;;;3.13;;
27209;SDS011;14721;42.668;23.386;2023-07-31T07:07:54;6.93;;;3.78;;
27209;SDS011;14721;42.668;23.386;2023-07-31T07:10:19;6.30;;;3.33;;
27209;SDS011;14721;42.668;23.386;2023-07-31T07:12:45;4.47;;;2.72;;
27209;SDS011;14721;42.668;23.386;2023-07-31T07:15:11;7.05;;;3.67;;
27209;SDS011;14721;42.668;23.386;2023-07-31T07:17:37;5.78;;;2.97;;
27209;SDS011;14721;42.668;23.386;2023-07-31T07:20:03;6.15;;;2.92;;
27209;SDS011;14721;42.668;23.386;2023-07-31T07:22:31;5.85;;;3.08;;
27209;SDS011;14721;42.668;23.386;2023-07-31T07:24:56;8.98;;;3.10;;
27209;SDS011;14721;42.668;23.386;2023-07-31T07:27:22;6.35;;;3.50;;
27209;SDS011;14721;42.668;23.386;2023-07-31T07:29:47;5.40;;;3.50;;
27209;SDS011;14721;42.668;23.386;2023-07-31T07:32:16;5.20;;;3.35;;
27209;SDS011;14721;42.668;23.386;2023-07-31T07:34:42;5.22;;;3.20;;
27209;SDS011;14721;42.668;23.386;2023-07-31T07:37:08;4.30;;;2.92;;
27209;SDS011;14721;42.668;23.386;2023-07-31T07:39:33;7.38;;;2.80;;
27209;SDS011;14721;42.668;23.386;2023-07-31T07:41:59;4.70;;;2.97;;
27209;SDS011;14721;42.668;23.386;2023-07-31T07:44:24;5.53;;;2.92;;
27209;SDS011;14721;42.668;23.386;2023-07-31T07:46:49;5.53;;;3.40;;
27209;SDS011;14721;42.668;23.386;2023-07-31T07:49:15;7.40;;;3.15;;
27209;SDS011;14721;42.668;23.386;2023-07-31T07:51:40;6.15;;;3.97;;
27209;SDS011;14721;42.668;23.386;2023-07-31T07:54:07;5.97;;;3.20;;
27209;SDS011;14721;42.668;23.386;2023-07-31T07:56:33;8.73;;;3.00;;
27209;SDS011;14721;42.668;23.386;2023-07-31T07:58:58;5.47;;;3.92;;
27209;SDS011;14721;42.668;23.386;2023-07-31T08:01:24;4.25;;;3.08;;
27209;SDS011;14721;42.668;23.386;2023-07-31T08:03:50;5.03;;;3.15;;
27209;SDS011;14721;42.668;23.386;2023-07-31T08:06:15;4.80;;;3.13;;
27209;SDS011;14721;42.668;23.386;2023-07-31T08:08:41;9.02;;;3.03;;
27209;SDS011;14721;42.668;23.386;2023-07-31T08:11:07;3.97;;;2.85;;
27209;SDS011;14721;42.668;23.386;2023-07-31T08:13:34;4.40;;;2.95;;
27209;SDS011;14721;42.668;23.386;2023-07-31T08:16:01;9.00;;;2.60;;
27209;SDS011;14721;42.668;23.386;2023-07-31T08:18:30;6.22;;;3.00;;
27209;SDS011;14721;42.668;23.386;2023-07-31T08:20:56;5.95;;;3.22;;
27209;SDS011;14721;42.668;23.386;2023-07-31T08:23:21;4.65;;;3.15;;
27209;SDS011;14721;42.668;23.386;2023-07-31T08:25:48;3.75;;;2.63;;
27209;SDS011;14721;42.668;23.386;2023-07-31T08:28:15;4.80;;;2.60;;
27209;SDS011;14721;42.668;23.386;2023-07-31T08:30:41;5.55;;;2.40;;
27209;SDS011;14721;42.668;23.386;2023-07-31T08:33:07;5.05;;;2.58;;
27209;SDS011;14721;42.668;23.386;2023-07-31T08:35:34;4.53;;;2.80;;
27209;SDS011;14721;42.668;23.386;2023-07-31T08:38:01;3.78;;;2.38;;
27209;SDS011;14721;42.668;23.386;2023-07-31T08:40:28;6.45;;;2.65;;
27209;SDS011;14721;42.668;23.386;2023-07-31T08:42:55;4.15;;;2.63;;
27209;SDS011;14721;42.668;23.386;2023-07-31T08:45:23;4.53;;;2.88;;
27209;SDS011;14721;42.668;23.386;2023-07-31T08:47:50;3.35;;;2.38;;
27209;SDS011;14721;42.668;23.386;2023-07-31T08:50:18;7.00;;;2.85;;
27209;SDS011;14721;42.668;23.386;2023-07-31T08:52:46;8.90;;;4.53;;
27209;SDS011;14721;42.668;23.386;2023-07-31T08:55:18;5.65;;;3.63;;
27209;SDS011;14721;42.668;23.386;2023-07-31T08:57:51;6.60;;;2.80;;
27209;SDS011;14721;42.668;23.386;2023-07-31T09:00:20;6.10;;;2.95;;
27209;SDS011;14721;42.668;23.386;2023-07-31T09:02:54;5.00;;;2.65;;
27209;SDS011;14721;42.668;23.386;2023-07-31T09:05:28;5.25;;;3.10;;
27209;SDS011;14721;42.668;23.386;2023-07-31T09:07:57;4.38;;;3.10;;
27209;SDS011;14721;42.668;23.386;2023-07-31T09:10:26;3.83;;;2.38;;
27209;SDS011;14721;42.668;23.386;2023-07-31T09:12:54;3.60;;;3.00;;
27209;SDS011;14721;42.668;23.386;2023-07-31T09:15:20;5.20;;;2.90;;
27209;SDS011;14721;42.668;23.386;2023-07-31T09:17:48;4.88;;;2.58;;
27209;SDS011;14721;42.668;23.386;2023-07-31T09:20:25;5.70;;;2.72;;
27209;SDS011;14721;42.668;23.386;2023-07-31T09:22:53;3.20;;;2.20;;
27209;SDS011;14721;42.668;23.386;2023-07-31T09:27:50;4.32;;;2.60;;
27209;SDS011;14721;42.668;23.386;2023-07-31T09:30:22;6.45;;;2.83;;
27209;SDS011;14721;42.668;23.386;2023-07-31T09:32:49;4.18;;;2.40;;
27209;SDS011;14721;42.668;23.386;2023-07-31T09:35:20;3.95;;;2.60;;
27209;SDS011;14721;42.668;23.386;2023-07-31T09:37:57;4.55;;;2.90;;
27209;SDS011;14721;42.668;23.386;2023-07-31T09:40:28;3.55;;;2.22;;
27209;SDS011;14721;42.668;23.386;2023-07-31T09:42:56;3.80;;;2.63;;
27209;SDS011;14721;42.668;23.386;2023-07-31T09:45:23;4.10;;;2.35;;
27209;SDS011;14721;42.668;23.386;2023-07-31T09:47:49;5.00;;;3.08;;
27209;SDS011;14721;42.668;23.386;2023-07-31T09:50:19;5.88;;;2.53;;
27209;SDS011;14721;42.668;23.386;2023-07-31T09:52:46;5.28;;;3.03;;
27209;SDS011;14721;42.668;23.386;2023-07-31T09:55:11;10.52;;;5.57;;
27209;SDS011;14721;42.668;23.386;2023-07-31T09:57:39;5.80;;;2.88;;
27209;SDS011;14721;42.668;23.386;2023-07-31T10:00:09;7.85;;;2.95;;
27209;SDS011;14721;42.668;23.386;2023-07-31T10:02:36;4.13;;;2.85;;
27209;SDS011;14721;42.668;23.386;2023-07-31T10:05:03;7.85;;;3.00;;
27209;SDS011;14721;42.668;23.386;2023-07-31T10:07:31;3.60;;;2.45;;
27209;SDS011;14721;42.668;23.386;2023-07-31T10:10:02;4.15;;;2.53;;
27209;SDS011;14721;42.668;23.386;2023-07-31T10:12:29;2.88;;;1.90;;
27209;SDS011;14721;42.668;23.386;2023-07-31T10:14:57;5.78;;;2.42;;
27209;SDS011;14721;42.668;23.386;2023-07-31T10:17:24;2.55;;;1.90;;
27209;SDS011;14721;42.668;23.386;2023-07-31T10:19:51;3.47;;;2.00;;
27209;SDS011;14721;42.668;23.386;2023-07-31T10:22:19;4.63;;;2.20;;
27209;SDS011;14721;42.668;23.386;2023-07-31T10:24:46;3.83;;;2.25;;
27209;SDS011;14721;42.668;23.386;2023-07-31T10:27:12;6.25;;;2.10;;
27209;SDS011;14721;42.668;23.386;2023-07-31T10:29:38;3.28;;;2.20;;
27209;SDS011;14721;42.668;23.386;2023-07-31T10:32:09;4.15;;;2.90;;
27209;SDS011;14721;42.668;23.386;2023-07-31T10:34:37;3.70;;;1.90;;
27209;SDS011;14721;42.668;23.386;2023-07-31T10:40:03;2.88;;;2.05;;
27209;SDS011;14721;42.668;23.386;2023-07-31T10:45:05;3.08;;;1.85;;
27209;SDS011;14721;42.668;23.386;2023-07-31T10:47:38;3.00;;;1.70;;
27209;SDS011;14721;42.668;23.386;2023-07-31T10:53:06;4.35;;;2.17;;
27209;SDS011;14721;42.668;23.386;2023-07-31T10:55:50;4.13;;;1.60;;
27209;SDS011;14721;42.668;23.386;2023-07-31T10:58:18;2.00;;;1.50;;
27209;SDS011;14721;42.668;23.386;2023-07-31T11:00:45;2.85;;;1.80;;
27209;SDS011;14721;42.668;23.386;2023-07-31T11:03:14;3.53;;;1.85;;
27209;SDS011;14721;42.668;23.386;2023-07-31T11:08:26;5.65;;;1.83;;
27209;SDS011;14721;42.668;23.386;2023-07-31T11:13:48;2.55;;;1.77;;
27209;SDS011;14721;42.668;23.386;2023-07-31T11:16:20;4.63;;;2.00;;
27209;SDS011;14721;42.668;23.386;2023-07-31T11:18:51;4.13;;;1.80;;
27209;SDS011;14721;42.668;23.386;2023-07-31T11:21:21;3.90;;;2.05;;
27209;SDS011;14721;42.668;23.386;2023-07-31T11:23:52;2.65;;;1.58;;
27209;SDS011;14721;42.668;23.386;2023-07-31T11:26:24;2.33;;;1.60;;
27209;SDS011;14721;42.668;23.386;2023-07-31T11:28:51;4.60;;;2.75;;
27209;SDS011;14721;42.668;23.386;2023-07-31T11:31:17;2.63;;;1.80;;
27209;SDS011;14721;42.668;23.386;2023-07-31T11:33:45;1.90;;;1.27;;
27209;SDS011;14721;42.668;23.386;2023-07-31T11:36:17;5.10;;;2.00;;
27209;SDS011;14721;42.668;23.386;2023-07-31T11:38:44;7.30;;;3.17;;
27209;SDS011;14721;42.668;23.386;2023-07-31T11:41:20;7.18;;;3.08;;
27209;SDS011;14721;42.668;23.386;2023-07-31T11:43:46;4.80;;;1.75;;
27209;SDS011;14721;42.668;23.386;2023-07-31T11:46:19;7.47;;;1.75;;
27209;SDS011;14721;42.668;23.386;2023-07-31T11:48:45;3.35;;;2.08;;
27209;SDS011;14721;42.668;23.386;2023-07-31T11:51:11;3.22;;;1.70;;
27209;SDS011;14721;42.668;23.386;2023-07-31T11:56:19;4.05;;;2.10;;
27209;SDS011;14721;42.668;23.386;2023-07-31T11:58:47;6.05;;;2.40;;
27209;SDS011;14721;42.668;23.386;2023-07-31T12:01:19;6.75;;;2.63;;
27209;SDS011;14721;42.668;23.386;2023-07-31T12:03:50;4.85;;;2.45;;
27209;SDS011;14721;42.668;23.386;2023-07-31T12:06:16;5.55;;;3.40;;
27209;SDS011;14721;42.668;23.386;2023-07-31T12:08:41;8.38;;;2.53;;
27209;SDS011;14721;42.668;23.386;2023-07-31T12:11:08;3.83;;;2.13;;
27209;SDS011;14721;42.668;23.386;2023-07-31T12:13:38;5.15;;;2.30;;
27209;SDS011;14721;42.668;23.386;2023-07-31T12:16:04;4.07;;;2.55;;
27209;SDS011;14721;42.668;23.386;2023-07-31T12:18:33;4.18;;;2.50;;
27209;SDS011;14721;42.668;23.386;2023-07-31T12:21:01;6.07;;;2.38;;
27209;SDS011;14721;42.668;23.386;2023-07-31T12:23:30;3.63;;;2.25;;
27209;SDS011;14721;42.668;23.386;2023-07-31T12:26:00;5.47;;;2.50;;
27209;SDS011;14721;42.668;23.386;2023-07-31T12:28:25;5.20;;;2.63;;
27209;SDS011;14721;42.668;23.386;2023-07-31T12:30:51;4.70;;;3.08;;
27209;SDS011;14721;42.668;23.386;2023-07-31T12:33:16;4.25;;;2.45;;
27209;SDS011;14721;42.668;23.386;2023-07-31T12:35:45;6.20;;;3.00;;
27209;SDS011;14721;42.668;23.386;2023-07-31T12:38:19;4.35;;;3.00;;
27209;SDS011;14721;42.668;23.386;2023-07-31T12:40:45;4.20;;;3.38;;
27209;SDS011;14721;42.668;23.386;2023-07-31T12:43:10;9.60;;;3.67;;
27209;SDS011;14721;42.668;23.386;2023-07-31T12:45:36;6.63;;;3.85;;
27209;SDS011;14721;42.668;23.386;2023-07-31T12:48:01;7.68;;;3.92;;
27209;SDS011;14721;42.668;23.386;2023-07-31T12:50:27;5.65;;;4.00;;
27209;SDS011;14721;42.668;23.386;2023-07-31T12:52:53;11.13;;;4.22;;
27209;SDS011;14721;42.668;23.386;2023-07-31T12:55:19;5.85;;;3.90;;
27209;SDS011;14721;42.668;23.386;2023-07-31T12:57:46;5.15;;;3.70;;
27209;SDS011;14721;42.668;23.386;2023-07-31T13:00:12;7.70;;;4.78;;
27209;SDS011;14721;42.668;23.386;2023-07-31T13:02:41;5.45;;;4.53;;
27209;SDS011;14721;42.668;23.386;2023-07-31T13:05:07;5.43;;;4.10;;
27209;SDS011;14721;42.668;23.386;2023-07-31T13:07:40;6.32;;;4.20;;
27209;SDS011;14721;42.668;23.386;2023-07-31T13:10:06;7.18;;;4.20;;
27209;SDS011;14721;42.668;23.386;2023-07-31T13:12:33;8.88;;;4.65;;
27209;SDS011;14721;42.668;23.386;2023-07-31T13:15:02;6.70;;;4.97;;
27209;SDS011;14721;42.668;23.386;2023-07-31T13:17:29;9.40;;;4.55;;
27209;SDS011;14721;42.668;23.386;2023-07-31T13:19:54;6.43;;;4.88;;
27209;SDS011;14721;42.668;23.386;2023-07-31T13:22:20;7.03;;;4.72;;
27209;SDS011;14721;42.668;23.386;2023-07-31T13:24:45;6.30;;;4.43;;
27209;SDS011;14721;42.668;23.386;2023-07-31T13:27:11;5.85;;;4.05;;
27209;SDS011;14721;42.668;23.386;2023-07-31T13:29:36;7.88;;;4.57;;
27209;SDS011;14721;42.668;23.386;2023-07-31T13:32:02;5.88;;;4.30;;
27209;SDS011;14721;42.668;23.386;2023-07-31T13:34:28;4.53;;;3.63;;
27209;SDS011;14721;42.668;23.386;2023-07-31T13:36:54;8.05;;;4.03;;
27209;SDS011;14721;42.668;23.386;2023-07-31T13:39:21;6.00;;;4.28;;
27209;SDS011;14721;42.668;23.386;2023-07-31T13:41:50;5.00;;;3.63;;
27209;SDS011;14721;42.668;23.386;2023-07-31T13:44:16;6.10;;;3.55;;
27209;SDS011;14721;42.668;23.386;2023-07-31T13:46:42;10.32;;;3.90;;
27209;SDS011;14721;42.668;23.386;2023-07-31T13:49:09;8.07;;;3.88;;
27209;SDS011;14721;42.668;23.386;2023-07-31T13:51:35;5.05;;;3.55;;
27209;SDS011;14721;42.668;23.386;2023-07-31T13:54:01;6.82;;;3.60;;
27209;SDS011;14721;42.668;23.386;2023-07-31T13:56:27;5.22;;;3.40;;
27209;SDS011;14721;42.668;23.386;2023-07-31T13:58:53;7.90;;;4.28;;
27209;SDS011;14721;42.668;23.386;2023-07-31T14:01:18;7.55;;;3.90;;
27209;SDS011;14721;42.668;23.386;2023-07-31T14:03:44;4.63;;;3.08;;
27209;SDS011;14721;42.668;23.386;2023-07-31T14:06:09;5.03;;;3.35;;
27209;SDS011;14721;42.668;23.386;2023-07-31T14:08:38;4.13;;;3.15;;
27209;SDS011;14721;42.668;23.386;2023-07-31T14:11:09;6.47;;;3.88;;
27209;SDS011;14721;42.668;23.386;2023-07-31T14:13:34;5.65;;;4.35;;
27209;SDS011;14721;42.668;23.386;2023-07-31T14:16:00;6.43;;;4.10;;
27209;SDS011;14721;42.668;23.386;2023-07-31T14:18:25;8.02;;;3.80;;
27209;SDS011;14721;42.668;23.386;2023-07-31T14:20:52;6.15;;;3.63;;
27209;SDS011;14721;42.668;23.386;2023-07-31T14:23:17;4.65;;;3.85;;
27209;SDS011;14721;42.668;23.386;2023-07-31T14:25:44;7.60;;;3.40;;
27209;SDS011;14721;42.668;23.386;2023-07-31T14:28:10;6.32;;;4.30;;
27209;SDS011;14721;42.668;23.386;2023-07-31T14:30:36;6.30;;;4.47;;
27209;SDS011;14721;42.668;23.386;2023-07-31T14:33:02;6.32;;;3.70;;
27209;SDS011;14721;42.668;23.386;2023-07-31T14:35:31;8.27;;;5.47;;
27209;SDS011;14721;42.668;23.386;2023-07-31T14:37:57;8.15;;;5.32;;
27209;SDS011;14721;42.668;23.386;2023-07-31T14:40:28;4.22;;;3.38;;
27209;SDS011;14721;42.668;23.386;2023-07-31T14:42:54;5.20;;;3.22;;
27209;SDS011;14721;42.668;23.386;2023-07-31T14:45:21;4.22;;;2.90;;
27209;SDS011;14721;42.668;23.386;2023-07-31T14:47:48;5.90;;;4.10;;
27209;SDS011;14721;42.668;23.386;2023-07-31T14:50:17;4.43;;;3.25;;
27209;SDS011;14721;42.668;23.386;2023-07-31T14:52:44;4.57;;;3.08;;